Time;durP1;ratioP1;P1;durP2;ratioP2;P2;SDS_P1;SDS_P2;PMS_P1;PMS_P2;Temp;Humidity;BMP_temperature;BMP_pressure;BME280_temperature;BME280_humidity;BME280_pressure;Samples;Min_cycle;Max_cycle;Signal;HPM_P1;HPM_P2
2022/10/06 00:00:44;;;;;;;4.33;2.60;;;15.10;99.90;;;;;;4188653;28;20942;-72
2022/10/06 00:02:47;;;;;;;3.53;2.53;;;15.10;99.90;;;;;;4183469;28;20207;-72
2022/10/06 00:04:49;;;;;;;3.77;2.93;;;15.10;99.90;;;;;;4184530;28;20215;-73
2022/10/06 00:06:50;;;;;;;4.17;2.30;;;15.10;99.90;;;;;;4178126;28;20206;-77
2022/10/06 00:08:52;;;;;;;3.37;2.50;;;15.10;99.90;;;;;;4182605;28;20227;-71
2022/10/06 00:10:55;;;;;;;3.87;2.63;;;15.10;99.90;;;;;;4186069;28;20217;-71
2022/10/06 00:12:57;;;;;;;3.60;2.63;;;15.20;99.90;;;;;;4181862;28;20213;-74
2022/10/06 00:14:59;;;;;;;4.87;2.63;;;15.20;99.90;;;;;;4180091;28;20257;-74
2022/10/06 00:17:01;;;;;;;3.23;2.43;;;15.20;99.90;;;;;;4184576;28;20225;-75
2022/10/06 00:19:04;;;;;;;3.00;2.40;;;15.20;99.90;;;;;;4184184;28;20232;-75
2022/10/06 00:21:06;;;;;;;3.33;2.53;;;15.20;99.90;;;;;;4186747;28;20492;-71
2022/10/06 00:23:08;;;;;;;2.83;2.40;;;15.20;99.90;;;;;;4181476;28;20215;-74
2022/10/06 00:25:12;;;;;;;4.10;2.30;;;15.20;99.90;;;;;;4183170;28;20354;-73
2022/10/06 00:27:14;;;;;;;2.00;1.70;;;15.20;99.90;;;;;;4186745;28;20281;-74
2022/10/06 00:29:15;;;;;;;2.80;2.17;;;15.20;99.90;;;;;;4182394;28;20721;-76
2022/10/06 00:31:20;;;;;;;3.50;2.33;;;15.10;99.90;;;;;;4178055;28;20203;-75
2022/10/06 00:33:23;;;;;;;5.47;2.40;;;15.10;99.90;;;;;;4178022;28;20247;-74
2022/10/06 00:35:30;;;;;;;4.63;2.60;;;15.10;99.90;;;;;;4183199;28;20211;-72
2022/10/06 00:37:36;;;;;;;6.00;2.10;;;15.10;99.90;;;;;;4177619;28;20310;-77
2022/10/06 00:39:40;;;;;;;2.83;2.23;;;15.10;99.90;;;;;;4184376;28;20236;-71
2022/10/06 00:41:42;;;;;;;2.80;2.13;;;15.10;99.90;;;;;;4186607;28;20227;-74
2022/10/06 00:43:50;;;;;;;4.97;2.63;;;15.10;99.90;;;;;;4189368;28;20232;-76
2022/10/06 00:45:52;;;;;;;4.77;2.50;;;15.00;99.90;;;;;;4190747;28;20213;-77
2022/10/06 00:47:58;;;;;;;5.03;2.37;;;15.00;99.90;;;;;;4184422;28;20233;-72
2022/10/06 00:50:01;;;;;;;4.23;2.40;;;15.00;99.90;;;;;;4184812;28;20242;-75
2022/10/06 00:52:07;;;;;;;5.27;2.67;;;15.00;99.90;;;;;;4186735;28;20260;-71
2022/10/06 00:54:09;;;;;;;3.97;2.03;;;14.90;99.90;;;;;;4181428;28;20238;-72
2022/10/06 00:56:12;;;;;;;4.20;2.27;;;14.90;99.90;;;;;;4184708;28;20200;-73
2022/10/06 00:58:14;;;;;;;3.80;2.30;;;14.90;99.90;;;;;;4183087;28;20253;-74
2022/10/06 01:00:16;;;;;;;3.60;2.43;;;14.90;99.90;;;;;;4188300;28;20208;-74
2022/10/06 01:02:22;;;;;;;3.07;2.40;;;14.80;99.90;;;;;;4181868;28;20205;-74
2022/10/06 01:04:24;;;;;;;3.03;1.90;;;14.90;99.90;;;;;;4186736;28;20211;-72
2022/10/06 01:06:26;;;;;;;3.33;2.33;;;14.80;99.90;;;;;;4187220;28;20203;-74
2022/10/06 01:08:32;;;;;;;3.00;2.23;;;14.80;99.90;;;;;;4186381;28;20237;-76
2022/10/06 01:10:34;;;;;;;3.87;2.30;;;14.80;99.90;;;;;;4185989;28;20235;-74
2022/10/06 01:12:36;;;;;;;4.17;2.17;;;14.90;99.90;;;;;;4182549;28;20211;-72
2022/10/06 01:14:39;;;;;;;4.77;2.40;;;14.90;99.90;;;;;;4186747;28;20221;-75
2022/10/06 01:16:44;;;;;;;3.00;2.10;;;14.90;99.90;;;;;;4185566;28;20204;-71
2022/10/06 01:18:47;;;;;;;4.60;2.03;;;14.90;99.90;;;;;;4186734;28;20239;-74
2022/10/06 01:20:54;;;;;;;2.73;2.17;;;15.00;99.90;;;;;;4189845;28;20221;-71
2022/10/06 01:23:02;;;;;;;3.93;2.07;;;15.00;99.90;;;;;;4192148;28;20583;-74
2022/10/06 01:25:06;;;;;;;3.63;2.43;;;15.10;99.90;;;;;;4182620;28;20695;-72
2022/10/06 01:27:11;;;;;;;4.83;1.87;;;15.10;99.90;;;;;;4188763;28;20208;-75
2022/10/06 01:29:13;;;;;;;2.87;2.20;;;15.10;99.90;;;;;;4185113;28;20234;-73
2022/10/06 01:31:15;;;;;;;4.57;2.23;;;15.10;99.90;;;;;;4188257;28;20204;-72
2022/10/06 01:33:17;;;;;;;5.13;2.17;;;15.10;99.90;;;;;;4188498;28;20205;-76
2022/10/06 01:35:19;;;;;;;3.00;1.97;;;15.20;99.90;;;;;;4187394;28;20223;-75
2022/10/06 01:37:21;;;;;;;2.43;1.87;;;15.20;99.90;;;;;;4190469;28;20622;-72
2022/10/06 01:39:24;;;;;;;3.40;2.10;;;15.20;99.90;;;;;;4183318;28;20224;-73
2022/10/06 01:41:27;;;;;;;2.30;1.83;;;15.20;99.90;;;;;;4183570;28;20209;-74
2022/10/06 01:43:28;;;;;;;2.63;2.00;;;15.20;99.90;;;;;;4187139;28;20228;-71
2022/10/06 01:45:30;;;;;;;3.23;2.00;;;15.20;99.90;;;;;;4181813;28;20291;-71
2022/10/06 01:47:33;;;;;;;3.43;2.13;;;15.10;99.90;;;;;;4187227;28;20229;-72
2022/10/06 01:49:35;;;;;;;3.27;2.00;;;15.10;99.90;;;;;;4181613;28;20226;-75
2022/10/06 01:51:36;;;;;;;4.93;2.30;;;15.10;99.90;;;;;;4188503;28;20607;-71
2022/10/06 01:53:38;;;;;;;3.70;2.23;;;15.10;99.90;;;;;;4188579;28;20574;-71
2022/10/06 01:55:41;;;;;;;2.90;1.97;;;15.10;99.90;;;;;;4182715;28;20216;-73
2022/10/06 01:57:43;;;;;;;2.90;2.00;;;15.10;99.90;;;;;;4187531;28;20216;-72
2022/10/06 01:59:45;;;;;;;3.30;2.37;;;15.10;99.90;;;;;;4184886;28;20724;-71
2022/10/06 02:01:47;;;;;;;3.50;2.40;;;15.10;99.90;;;;;;4191856;28;20206;-71
2022/10/06 02:03:49;;;;;;;2.70;2.07;;;15.10;99.90;;;;;;4184041;28;20432;-71
2022/10/06 02:05:51;;;;;;;4.00;2.57;;;15.20;99.90;;;;;;4188828;28;20230;-73
2022/10/06 02:07:52;;;;;;;3.07;2.40;;;15.20;99.90;;;;;;4182268;28;20300;-72
2022/10/06 02:09:54;;;;;;;3.80;2.70;;;15.20;99.90;;;;;;4180644;28;20223;-74
2022/10/06 02:11:57;;;;;;;4.23;2.43;;;15.20;99.90;;;;;;4187650;28;20875;-71
2022/10/06 02:14:00;;;;;;;3.50;2.40;;;15.20;99.90;;;;;;4183118;28;20203;-74
2022/10/06 02:16:02;;;;;;;4.83;2.60;;;15.20;99.90;;;;;;4190599;28;20215;-72
2022/10/06 02:18:04;;;;;;;3.10;2.43;;;15.20;99.90;;;;;;4185637;28;20270;-72
2022/10/06 02:20:07;;;;;;;4.23;2.10;;;15.10;99.90;;;;;;4188712;28;20211;-72
2022/10/06 02:22:08;;;;;;;3.70;2.27;;;15.10;99.90;;;;;;4189766;28;20662;-77
2022/10/06 02:24:10;;;;;;;4.47;2.33;;;15.10;99.90;;;;;;4190963;28;20296;-71
2022/10/06 02:26:13;;;;;;;3.97;2.40;;;15.10;99.90;;;;;;4183545;28;20216;-72
2022/10/06 02:28:16;;;;;;;2.60;2.10;;;15.10;99.90;;;;;;4190677;28;20585;-75
2022/10/06 02:30:18;;;;;;;4.53;2.63;;;15.10;99.90;;;;;;4181566;28;20215;-72
2022/10/06 02:32:20;;;;;;;3.47;2.23;;;15.10;99.90;;;;;;4189048;28;20210;-72
2022/10/06 02:34:22;;;;;;;3.50;2.43;;;15.10;99.90;;;;;;4187979;28;20210;-72
2022/10/06 02:36:23;;;;;;;3.23;2.53;;;15.10;99.90;;;;;;4180646;28;20284;-73
2022/10/06 02:38:26;;;;;;;4.77;2.40;;;15.00;99.90;;;;;;4180890;28;20466;-72
2022/10/06 02:40:27;;;;;;;8.23;2.93;;;15.00;99.90;;;;;;4185390;28;20289;-73
2022/10/06 02:42:29;;;;;;;3.67;2.30;;;15.00;99.90;;;;;;4188938;28;20287;-74
2022/10/06 02:44:32;;;;;;;4.80;2.50;;;14.90;99.90;;;;;;4187697;28;20207;-74
2022/10/06 02:46:34;;;;;;;3.20;2.47;;;14.90;99.90;;;;;;4183810;28;20208;-72
2022/10/06 02:48:36;;;;;;;5.43;2.47;;;14.90;99.90;;;;;;4180555;28;20218;-72
2022/10/06 02:50:38;;;;;;;4.23;2.60;;;14.90;99.90;;;;;;4180417;28;20217;-72
2022/10/06 02:52:41;;;;;;;6.37;2.60;;;14.90;99.90;;;;;;4180811;28;20303;-74
2022/10/06 02:54:44;;;;;;;2.87;2.27;;;14.90;99.90;;;;;;4192704;28;20202;-72
2022/10/06 02:56:49;;;;;;;5.73;2.40;;;14.80;99.90;;;;;;4184223;28;20717;-72
2022/10/06 02:58:52;;;;;;;4.83;2.20;;;14.90;99.90;;;;;;4186133;28;20246;-73
2022/10/06 03:00:55;;;;;;;3.87;2.13;;;14.90;99.90;;;;;;4193124;28;20210;-72
2022/10/06 03:02:58;;;;;;;4.33;2.00;;;14.90;99.90;;;;;;4189606;28;20569;-71
2022/10/06 03:05:00;;;;;;;3.63;2.30;;;14.90;99.90;;;;;;4183959;28;20691;-70
2022/10/06 03:07:02;;;;;;;2.90;1.90;;;14.90;99.90;;;;;;4184556;28;20295;-72
2022/10/06 03:09:06;;;;;;;2.73;1.83;;;14.90;99.90;;;;;;4184312;28;20221;-77
2022/10/06 03:11:08;;;;;;;4.03;1.93;;;15.00;99.90;;;;;;4189403;28;20236;-71
2022/10/06 03:13:10;;;;;;;2.67;1.87;;;15.00;99.90;;;;;;4185861;28;20207;-72
2022/10/06 03:15:12;;;;;;;2.60;1.80;;;15.10;99.90;;;;;;4184570;28;20209;-75
2022/10/06 03:17:15;;;;;;;3.73;2.50;;;15.10;99.90;;;;;;4186757;28;20842;-72
2022/10/06 03:19:17;;;;;;;5.20;2.20;;;15.10;99.90;;;;;;4190529;28;20258;-73
2022/10/06 03:21:20;;;;;;;3.10;2.13;;;15.20;99.90;;;;;;4190388;28;20780;-72
2022/10/06 03:23:22;;;;;;;2.80;2.13;;;15.30;99.90;;;;;;4179886;28;20282;-71
2022/10/06 03:25:24;;;;;;;4.40;2.57;;;15.30;99.90;;;;;;4189287;28;20219;-71
2022/10/06 03:27:26;;;;;;;4.27;2.10;;;15.40;99.90;;;;;;4189514;28;20733;-71
2022/10/06 03:29:29;;;;;;;2.40;2.07;;;15.40;99.90;;;;;;4183973;28;20375;-72
2022/10/06 03:31:31;;;;;;;4.33;2.37;;;15.50;99.90;;;;;;4179473;28;20235;-71
2022/10/06 03:33:34;;;;;;;3.93;2.03;;;15.50;99.90;;;;;;4184360;28;20237;-73
2022/10/06 03:35:36;;;;;;;3.17;2.07;;;15.50;99.90;;;;;;4180423;28;20420;-71
2022/10/06 03:37:38;;;;;;;5.00;2.00;;;15.50;99.90;;;;;;4183011;28;20241;-72
2022/10/06 03:39:40;;;;;;;3.60;2.27;;;15.50;99.90;;;;;;4180870;28;20776;-71
2022/10/06 03:41:42;;;;;;;4.97;2.03;;;15.50;99.90;;;;;;4183071;28;20699;-72
2022/10/06 03:43:46;;;;;;;3.10;2.03;;;15.60;99.90;;;;;;4186284;28;20220;-72
2022/10/06 03:45:56;;;;;;;5.13;2.37;;;15.50;99.90;;;;;;4185849;28;20622;-72
2022/10/06 03:47:58;;;;;;;3.20;2.20;;;15.60;99.90;;;;;;4184168;28;20693;-72
2022/10/06 03:50:01;;;;;;;4.27;2.27;;;15.60;99.90;;;;;;4188720;28;20640;-75
2022/10/06 03:52:03;;;;;;;5.53;2.30;;;15.60;99.90;;;;;;4187348;28;20295;-72
2022/10/06 03:54:06;;;;;;;6.13;3.10;;;15.60;99.90;;;;;;4187129;28;20683;-72
2022/10/06 03:56:11;;;;;;;6.43;3.10;;;15.60;99.90;;;;;;4181135;28;20303;-72
2022/10/06 03:58:17;;;;;;;3.83;2.73;;;15.60;99.90;;;;;;4182068;28;20314;-73
2022/10/06 04:00:19;;;;;;;3.77;2.40;;;15.60;99.90;;;;;;4178838;28;20212;-74
2022/10/06 04:02:21;;;;;;;4.17;2.50;;;15.60;99.90;;;;;;4179327;28;20695;-72
2022/10/06 04:04:23;;;;;;;4.13;2.10;;;15.60;99.90;;;;;;4181097;28;20211;-73
2022/10/06 04:06:28;;;;;;;3.63;2.20;;;15.60;99.90;;;;;;4187774;28;20312;-72
2022/10/06 04:08:31;;;;;;;2.60;2.10;;;15.70;99.90;;;;;;4191019;28;20255;-75
2022/10/06 04:10:33;;;;;;;2.40;1.80;;;15.70;99.90;;;;;;4187696;28;20568;-72
2022/10/06 04:12:35;;;;;;;3.30;2.20;;;15.70;99.90;;;;;;4191077;28;20212;-74
2022/10/06 04:14:37;;;;;;;2.60;2.10;;;15.60;99.90;;;;;;4186839;28;20214;-72
2022/10/06 04:16:40;;;;;;;3.23;2.33;;;15.60;99.90;;;;;;4187220;28;20242;-72
2022/10/06 04:18:43;;;;;;;3.27;2.50;;;15.70;99.90;;;;;;4190083;28;20236;-72
2022/10/06 04:20:45;;;;;;;3.73;2.23;;;15.70;99.90;;;;;;4183894;28;20591;-71
2022/10/06 04:22:48;;;;;;;3.77;1.93;;;15.70;99.90;;;;;;4200735;28;20204;-79
2022/10/06 04:24:50;;;;;;;2.57;2.00;;;15.70;99.90;;;;;;4213254;28;20216;-80
2022/10/06 04:26:52;;;;;;;3.80;2.23;;;15.70;99.90;;;;;;4212617;28;20220;-78
2022/10/06 04:28:54;;;;;;;3.00;2.10;;;15.70;99.90;;;;;;4207509;28;20218;-76
2022/10/06 04:30:57;;;;;;;3.57;2.30;;;15.70;99.90;;;;;;4207524;28;20183;-70
2022/10/06 04:32:59;;;;;;;2.60;2.20;;;15.70;99.90;;;;;;4195932;28;20299;-71
2022/10/06 04:35:01;;;;;;;2.83;2.00;;;15.70;99.90;;;;;;4191995;28;20212;-72
2022/10/06 04:37:03;;;;;;;4.77;2.00;;;15.70;99.90;;;;;;4191767;28;20732;-72
2022/10/06 04:39:07;;;;;;;2.50;2.00;;;15.70;99.90;;;;;;4185721;28;20598;-74
2022/10/06 04:41:12;;;;;;;2.90;2.03;;;15.70;99.90;;;;;;4185053;28;20217;-72
2022/10/06 04:43:14;;;;;;;3.20;1.90;;;15.70;99.90;;;;;;4188753;28;20593;-71
2022/10/06 04:45:16;;;;;;;3.57;2.00;;;15.70;99.90;;;;;;4186583;28;20262;-72
2022/10/06 04:47:18;;;;;;;3.60;2.00;;;15.70;99.90;;;;;;4189229;28;20667;-72
2022/10/06 04:49:20;;;;;;;2.23;1.63;;;15.70;99.90;;;;;;4185909;28;20276;-74
2022/10/06 04:51:23;;;;;;;1.70;1.30;;;15.70;99.90;;;;;;4178749;28;20208;-75
2022/10/06 04:53:25;;;;;;;2.23;1.50;;;15.70;99.90;;;;;;4178089;28;20236;-74
2022/10/06 04:55:29;;;;;;;4.80;1.70;;;15.70;99.90;;;;;;4179068;28;20282;-75
2022/10/06 04:57:31;;;;;;;4.93;1.20;;;15.70;99.90;;;;;;4179138;28;20282;-72
2022/10/06 05:01:54;;;;;;;0.77;0.60;;;15.60;99.90;;;;;;4187231;28;20203;-73
2022/10/06 05:03:57;;;;;;;1.20;0.63;;;15.60;99.90;;;;;;4184445;28;20697;-76
2022/10/06 05:06:04;;;;;;;0.60;0.53;;;15.50;99.90;;;;;;4186535;28;20235;-73
2022/10/06 05:08:06;;;;;;;0.50;0.50;;;15.50;99.90;;;;;;4183448;28;20248;-73
2022/10/06 05:10:08;;;;;;;1.10;0.53;;;15.50;99.90;;;;;;4182578;28;20228;-74
2022/10/06 05:12:11;;;;;;;0.70;0.70;;;15.50;99.90;;;;;;4182928;28;20658;-73
2022/10/06 05:14:13;;;;;;;1.43;0.80;;;15.40;99.90;;;;;;4177829;28;20238;-73
2022/10/06 05:16:16;;;;;;;1.00;0.53;;;15.40;99.90;;;;;;4179857;28;20228;-75
2022/10/06 05:18:18;;;;;;;0.40;0.40;;;15.40;99.90;;;;;;4185653;28;20614;-76
2022/10/06 05:20:21;;;;;;;0.97;0.77;;;15.40;99.90;;;;;;4183631;28;20803;-75
2022/10/06 05:22:23;;;;;;;0.40;0.40;;;15.40;99.90;;;;;;4183836;28;20743;-75
2022/10/06 05:24:25;;;;;;;1.10;0.60;;;15.30;99.90;;;;;;4184298;28;20718;-74
2022/10/06 05:26:29;;;;;;;0.43;0.43;;;15.30;99.90;;;;;;4184090;28;20256;-73
2022/10/06 05:28:33;;;;;;;0.50;0.40;;;15.30;99.90;;;;;;4182200;28;20222;-72
2022/10/06 05:30:35;;;;;;;1.00;0.60;;;15.30;99.90;;;;;;4182276;28;20243;-73
2022/10/06 05:32:37;;;;;;;1.03;0.40;;;15.30;99.90;;;;;;4184835;28;20674;-74
2022/10/06 05:34:38;;;;;;;0.50;0.50;;;15.30;99.90;;;;;;4177469;28;20563;-74
2022/10/06 05:36:40;;;;;;;0.33;0.30;;;15.20;99.90;;;;;;4180284;28;20330;-76
2022/10/06 05:38:42;;;;;;;1.40;0.50;;;15.20;99.90;;;;;;4182972;28;20672;-71
2022/10/06 05:40:44;;;;;;;1.03;0.57;;;15.20;99.90;;;;;;4186104;28;20208;-71
2022/10/06 05:42:46;;;;;;;1.17;0.70;;;15.20;99.90;;;;;;4186346;28;20241;-75
2022/10/06 05:44:49;;;;;;;1.00;0.60;;;15.20;99.90;;;;;;4186030;28;20300;-73
2022/10/06 05:46:51;;;;;;;0.80;0.50;;;15.10;99.90;;;;;;4181645;28;20596;-75
2022/10/06 05:48:55;;;;;;;0.53;0.40;;;15.10;99.90;;;;;;4180995;28;20867;-76
2022/10/06 05:51:02;;;;;;;1.13;0.60;;;15.10;99.90;;;;;;4177371;28;20208;-71
2022/10/06 05:53:04;;;;;;;1.33;0.73;;;15.10;99.90;;;;;;4180688;28;20250;-72
2022/10/06 05:55:06;;;;;;;1.13;0.50;;;15.00;99.90;;;;;;4178387;28;21050;-81
2022/10/06 05:57:08;;;;;;;1.43;0.60;;;15.00;99.90;;;;;;4188158;28;20283;-72
2022/10/06 05:59:10;;;;;;;0.63;0.50;;;15.00;99.90;;;;;;4184073;28;20260;-72
2022/10/06 06:01:15;;;;;;;0.87;0.60;;;15.00;99.90;;;;;;4180726;28;20219;-71
2022/10/06 06:03:17;;;;;;;0.53;0.40;;;15.00;99.90;;;;;;4178336;28;20740;-70
2022/10/06 06:05:19;;;;;;;1.37;0.40;;;14.90;99.90;;;;;;4180035;28;20210;-73
2022/10/06 06:07:21;;;;;;;1.50;0.43;;;14.90;99.90;;;;;;4187294;28;20250;-73
2022/10/06 06:09:25;;;;;;;0.97;0.50;;;14.90;99.90;;;;;;4179706;28;20219;-70
2022/10/06 06:11:30;;;;;;;1.60;0.43;;;14.80;99.90;;;;;;4186183;28;20210;-73
2022/10/06 06:13:32;;;;;;;0.70;0.40;;;14.80;99.90;;;;;;4190224;28;20213;-74
2022/10/06 06:17:56;;;;;;;1.97;0.60;;;14.70;99.90;;;;;;4185966;28;20284;-72
2022/10/06 06:19:58;;;;;;;0.83;0.50;;;14.70;99.90;;;;;;4185964;28;20215;-71
2022/10/06 06:22:00;;;;;;;1.80;0.53;;;14.70;99.90;;;;;;4181284;28;20203;-74
2022/10/06 06:24:03;;;;;;;1.47;0.60;;;14.70;99.90;;;;;;4184567;28;20210;-72
2022/10/06 06:26:06;;;;;;;1.87;0.50;;;14.60;99.90;;;;;;4185107;28;20310;-72
2022/10/06 06:28:08;;;;;;;1.00;0.60;;;14.60;99.90;;;;;;4185347;28;20199;-74
2022/10/06 06:30:11;;;;;;;1.60;0.80;;;14.60;99.90;;;;;;4183684;28;20843;-75
2022/10/06 06:32:13;;;;;;;0.40;0.40;;;14.60;99.90;;;;;;4189958;28;20238;-73
2022/10/06 06:34:16;;;;;;;1.57;0.50;;;14.60;99.90;;;;;;4180267;28;20231;-72
2022/10/06 06:36:20;;;;;;;1.87;0.70;;;14.50;99.90;;;;;;4198961;28;20694;-75
2022/10/06 06:38:22;;;;;;;1.17;0.50;;;14.50;99.90;;;;;;4185721;28;20206;-77
2022/10/06 06:40:24;;;;;;;2.13;0.70;;;14.40;99.90;;;;;;4186791;28;20252;-75
2022/10/06 06:42:26;;;;;;;1.40;0.53;;;14.40;99.90;;;;;;4185657;28;20246;-74
2022/10/06 06:44:29;;;;;;;1.33;0.60;;;14.40;99.90;;;;;;4183377;28;20562;-73
2022/10/06 06:46:31;;;;;;;1.13;0.60;;;14.40;99.90;;;;;;4185289;28;20774;-75
2022/10/06 06:48:36;;;;;;;2.10;0.53;;;14.40;99.90;;;;;;4187337;28;20662;-71
2022/10/06 06:50:39;;;;;;;1.43;0.60;;;14.30;99.90;;;;;;4186742;28;20303;-75
2022/10/06 06:52:42;;;;;;;2.63;0.70;;;14.30;99.90;;;;;;4188012;28;20215;-72
2022/10/06 06:54:47;;;;;;;1.73;0.70;;;14.30;99.90;;;;;;4183524;28;20211;-71
2022/10/06 06:56:49;;;;;;;1.33;0.63;;;14.30;99.90;;;;;;4190004;28;20253;-73
2022/10/06 06:58:50;;;;;;;1.70;0.63;;;14.30;99.90;;;;;;4190962;28;20252;-73
2022/10/06 07:00:52;;;;;;;2.33;0.80;;;14.30;99.90;;;;;;4183693;28;20234;-72
2022/10/06 07:02:59;;;;;;;5.13;0.90;;;14.30;99.90;;;;;;4182737;28;20211;-71
2022/10/06 07:05:01;;;;;;;0.70;0.60;;;14.30;99.90;;;;;;4182624;28;20240;-75
2022/10/06 07:07:04;;;;;;;2.33;0.77;;;14.20;99.90;;;;;;4184953;28;20659;-73
2022/10/06 07:09:07;;;;;;;1.97;1.00;;;14.30;99.90;;;;;;4181137;28;20317;-73
2022/10/06 07:11:12;;;;;;;2.47;0.90;;;14.20;99.90;;;;;;4188212;28;20286;-73
2022/10/06 07:13:15;;;;;;;2.77;0.90;;;14.20;99.90;;;;;;4185558;28;20589;-77
2022/10/06 07:26:57;;;;;;;2.67;0.90;;;14.20;99.90;;;;;;4183395;28;20208;-73
2022/10/06 07:28:59;;;;;;;3.60;0.80;;;14.10;99.90;;;;;;4188374;28;20226;-71
2022/10/06 07:31:01;;;;;;;6.33;1.00;;;14.10;99.90;;;;;;4181701;28;20209;-72
2022/10/06 07:33:04;;;;;;;2.17;0.70;;;14.10;99.90;;;;;;4183543;28;20797;-72
2022/10/06 07:35:06;;;;;;;0.77;0.77;;;14.00;99.90;;;;;;4185918;28;20205;-76
2022/10/06 07:37:08;;;;;;;2.43;0.93;;;14.00;99.90;;;;;;4183232;28;20197;-75
2022/10/06 07:39:11;;;;;;;2.97;1.10;;;14.00;99.90;;;;;;4185459;28;20234;-72
2022/10/06 07:41:13;;;;;;;5.87;1.00;;;14.00;99.90;;;;;;4182956;28;20206;-73
2022/10/06 07:43:15;;;;;;;4.33;1.00;;;14.00;99.90;;;;;;4183805;28;20211;-73
2022/10/06 07:47:38;;;;;;;1.80;0.90;;;14.00;99.90;;;;;;4180646;28;20264;-73
2022/10/06 07:49:41;;;;;;;7.07;1.27;;;14.00;99.90;;;;;;4185517;28;20226;-74
2022/10/06 07:51:43;;;;;;;6.67;1.30;;;14.10;99.90;;;;;;4184172;28;20210;-71
2022/10/06 07:53:49;;;;;;;4.73;1.20;;;14.10;99.90;;;;;;4184640;28;20641;-72
2022/10/06 07:55:52;;;;;;;4.77;1.27;;;14.10;99.90;;;;;;4186741;28;20209;-71
2022/10/06 07:57:53;;;;;;;5.47;1.07;;;14.10;99.90;;;;;;4185192;28;20281;-73
2022/10/06 07:59:55;;;;;;;4.67;1.07;;;14.20;99.90;;;;;;4188628;28;20226;-74
2022/10/06 08:01:57;;;;;;;6.17;1.10;;;14.10;99.90;;;;;;4188203;28;20234;-75
2022/10/06 08:03:59;;;;;;;3.20;1.20;;;14.20;99.90;;;;;;4187234;28;20241;-72
2022/10/06 08:06:02;;;;;;;4.80;1.00;;;14.30;99.90;;;;;;4185237;28;20211;-72
2022/10/06 08:08:03;;;;;;;5.83;1.23;;;14.30;99.90;;;;;;4180804;28;20810;-77
2022/10/06 08:10:06;;;;;;;4.10;1.20;;;14.30;99.90;;;;;;4189053;28;20329;-72
2022/10/06 08:14:25;;;;;;;6.93;1.00;;;14.30;99.90;;;;;;4187976;28;20951;-71
2022/10/06 08:16:28;;;;;;;3.43;1.03;;;14.40;99.90;;;;;;4184428;28;20234;-72
2022/10/06 08:18:30;;;;;;;5.80;0.83;;;14.40;99.90;;;;;;4185735;28;20224;-72
2022/10/06 08:20:32;;;;;;;5.43;1.13;;;14.50;99.90;;;;;;4177478;28;21120;-74
2022/10/06 08:22:35;;;;;;;7.47;1.10;;;14.50;99.90;;;;;;4182519;28;20822;-78
2022/10/06 08:24:36;;;;;;;4.03;1.10;;;14.50;99.90;;;;;;4187471;28;20640;-73
2022/10/06 08:26:38;;;;;;;5.17;1.20;;;14.50;99.90;;;;;;4178976;28;20241;-74
2022/10/06 08:28:44;;;;;;;4.67;1.30;;;14.60;99.90;;;;;;4184155;28;20250;-76
2022/10/06 08:30:46;;;;;;;3.57;0.93;;;14.60;99.90;;;;;;4178729;28;20203;-74
2022/10/06 08:32:48;;;;;;;3.47;0.90;;;14.60;99.90;;;;;;4185339;28;20303;-75
2022/10/06 08:34:50;;;;;;;6.33;1.00;;;14.60;99.90;;;;;;4184413;28;20200;-73
2022/10/06 08:36:52;;;;;;;4.67;1.17;;;14.70;99.90;;;;;;4180733;28;20247;-72
2022/10/06 08:38:55;;;;;;;5.03;1.00;;;14.70;99.90;;;;;;4183564;28;20226;-73
2022/10/06 08:40:57;;;;;;;7.97;0.90;;;14.70;99.90;;;;;;4179360;28;20226;-73
2022/10/06 08:43:01;;;;;;;3.07;0.80;;;14.80;99.90;;;;;;4181666;28;20221;-77
2022/10/06 08:45:13;;;;;;;7.83;1.17;;;14.80;99.90;;;;;;4185490;28;20203;-72
2022/10/06 08:47:18;;;;;;;4.63;1.00;;;14.80;99.90;;;;;;4184963;28;20224;-72
2022/10/06 08:49:23;;;;;;;2.67;0.90;;;14.80;99.90;;;;;;4185270;28;20256;-71
2022/10/06 08:51:37;;;;;;;7.00;1.20;;;14.90;99.90;;;;;;4183322;28;20282;-73
2022/10/06 08:53:47;;;;;;;5.03;1.03;;;15.00;99.90;;;;;;4185483;28;20211;-74
2022/10/06 08:55:53;;;;;;;4.43;1.10;;;15.00;99.90;;;;;;4183484;28;20302;-72
2022/10/06 08:58:13;;;;;;;6.50;1.00;;;15.00;99.90;;;;;;4179866;28;20265;-72
2022/10/06 09:00:17;;;;;;;8.43;1.77;;;15.10;99.90;;;;;;4185129;28;20570;-72
2022/10/06 09:02:30;;;;;;;4.13;0.80;;;15.10;99.90;;;;;;4186303;28;20692;-75
2022/10/06 09:04:33;;;;;;;9.23;1.63;;;15.10;99.90;;;;;;4184560;28;20207;-75
2022/10/06 09:06:44;;;;;;;6.53;1.23;;;15.10;99.90;;;;;;4182405;28;20207;-73
2022/10/06 09:08:52;;;;;;;7.27;1.30;;;15.20;99.90;;;;;;4183308;28;20718;-73
2022/10/06 09:11:06;;;;;;;4.77;0.93;;;15.20;99.90;;;;;;4182040;28;20201;-72
2022/10/06 09:13:15;;;;;;;7.27;1.10;;;15.30;99.90;;;;;;4185378;28;20204;-72
2022/10/06 09:15:29;;;;;;;6.63;1.20;;;15.30;99.90;;;;;;4187031;28;20222;-70
2022/10/06 09:17:36;;;;;;;10.50;1.17;;;15.40;99.90;;;;;;4185214;28;20203;-72
2022/10/06 09:19:43;;;;;;;5.37;1.20;;;15.40;99.90;;;;;;4181486;28;20227;-70
2022/10/06 09:21:49;;;;;;;6.63;1.13;;;15.50;99.90;;;;;;4183673;28;20213;-74
2022/10/06 09:23:59;;;;;;;2.70;1.10;;;15.60;99.90;;;;;;4184494;28;20215;-72
2022/10/06 09:26:02;;;;;;;6.63;1.20;;;15.70;99.90;;;;;;4182445;28;20657;-72
2022/10/06 09:28:08;;;;;;;3.70;0.93;;;15.70;99.90;;;;;;4183360;28;20685;-71
2022/10/06 09:30:12;;;;;;;5.10;1.17;;;15.70;99.90;;;;;;4177915;28;20612;-71
2022/10/06 09:32:16;;;;;;;7.17;1.57;;;15.80;99.90;;;;;;4180044;28;20202;-76
2022/10/06 09:34:28;;;;;;;4.03;1.07;;;15.90;97.70;;;;;;4183222;28;20207;-74
2022/10/06 09:36:33;;;;;;;5.23;0.93;;;15.90;97.70;;;;;;4184060;28;20214;-74
2022/10/06 09:38:52;;;;;;;3.97;1.17;;;16.00;99.80;;;;;;4190400;28;20586;-75
2022/10/06 09:40:57;;;;;;;3.87;1.00;;;16.00;99.30;;;;;;4187876;28;20565;-71
2022/10/06 09:43:00;;;;;;;5.23;1.47;;;16.10;91.60;;;;;;4186073;28;20209;-72
2022/10/06 09:45:06;;;;;;;6.30;1.13;;;16.20;91.50;;;;;;4179822;28;20570;-73
2022/10/06 09:47:35;;;;;;;3.90;1.03;;;16.10;91.80;;;;;;4186378;28;20197;-76
2022/10/06 09:49:37;;;;;;;8.57;1.27;;;16.10;92.30;;;;;;4189275;28;20286;-74
2022/10/06 09:51:39;;;;;;;4.03;0.90;;;16.10;92.20;;;;;;4185923;28;20204;-73
2022/10/06 09:53:41;;;;;;;3.30;0.70;;;16.10;90.00;;;;;;4184596;28;20750;-71
2022/10/06 09:55:52;;;;;;;6.90;1.40;;;16.00;88.60;;;;;;4185158;28;20245;-70
2022/10/06 09:57:56;;;;;;;3.50;0.90;;;16.10;90.00;;;;;;4185072;28;20205;-73
2022/10/06 09:59:58;;;;;;;3.40;1.30;;;16.10;90.50;;;;;;4188046;28;20579;-72
2022/10/06 10:02:03;;;;;;;2.87;1.00;;;16.10;91.90;;;;;;4187839;28;20567;-72
2022/10/06 10:04:11;;;;;;;4.37;1.10;;;16.10;90.40;;;;;;4189699;28;20214;-72
2022/10/06 10:06:23;;;;;;;4.60;1.20;;;16.20;90.60;;;;;;4187500;28;20233;-72
2022/10/06 10:08:29;;;;;;;3.33;0.90;;;16.20;90.70;;;;;;4181066;28;20205;-73
2022/10/06 10:10:33;;;;;;;3.97;1.10;;;16.20;88.70;;;;;;4184293;28;20206;-72
2022/10/06 10:12:35;;;;;;;5.03;1.40;;;16.20;83.40;;;;;;4190714;28;20217;-74
2022/10/06 10:14:38;;;;;;;5.00;1.13;;;16.30;84.50;;;;;;4193975;28;20633;-73
2022/10/06 10:16:39;;;;;;;6.43;1.23;;;16.30;85.20;;;;;;4189525;28;20206;-70
2022/10/06 10:18:46;;;;;;;3.67;1.20;;;16.30;84.00;;;;;;4186196;28;20597;-71
2022/10/06 10:20:54;;;;;;;5.50;1.00;;;16.40;84.50;;;;;;4194413;28;20691;-76
2022/10/06 10:22:58;;;;;;;3.90;1.40;;;16.40;85.70;;;;;;4188764;28;20856;-72
2022/10/06 10:25:12;;;;;;;5.20;1.30;;;16.50;85.70;;;;;;4186990;28;20237;-74
2022/10/06 10:27:20;;;;;;;3.60;1.10;;;16.50;85.90;;;;;;4186903;28;20481;-77
2022/10/06 10:29:43;;;;;;;2.70;1.07;;;16.60;85.80;;;;;;4198255;28;20226;-72
2022/10/06 10:32:01;;;;;;;4.50;1.13;;;16.70;86.20;;;;;;4181459;28;20321;-80
2022/10/06 10:34:13;;;;;;;3.53;1.13;;;16.80;85.20;;;;;;4188394;28;20232;-73
2022/10/06 10:36:17;;;;;;;6.63;1.03;;;16.80;80.20;;;;;;4184727;28;20221;-82
2022/10/06 10:38:21;;;;;;;6.80;1.33;;;16.80;81.00;;;;;;4187257;28;20206;-72
2022/10/06 10:40:37;;;;;;;5.13;1.20;;;16.80;77.60;;;;;;4183480;28;20213;-72
2022/10/06 10:42:47;;;;;;;4.17;0.93;;;16.90;74.50;;;;;;4187873;28;20214;-71
2022/10/06 10:44:56;;;;;;;6.90;1.00;;;16.90;72.50;;;;;;4186504;28;20279;-72
2022/10/06 10:47:06;;;;;;;3.80;0.90;;;16.90;73.00;;;;;;4188925;28;20823;-71
2022/10/06 10:49:15;;;;;;;8.03;1.07;;;17.00;73.10;;;;;;4187261;28;20806;-71
2022/10/06 10:51:23;;;;;;;3.13;1.20;;;17.00;70.10;;;;;;4183783;28;20297;-72
2022/10/06 10:53:33;;;;;;;5.13;0.97;;;16.90;68.30;;;;;;4178902;28;20206;-75
2022/10/06 10:55:40;;;;;;;6.57;1.40;;;17.00;68.00;;;;;;4189019;28;20205;-75
2022/10/06 10:57:43;;;;;;;3.53;0.83;;;17.00;67.50;;;;;;4186804;28;20236;-73
2022/10/06 10:59:57;;;;;;;2.30;0.80;;;17.10;67.30;;;;;;4188812;28;20230;-75
2022/10/06 11:02:01;;;;;;;5.13;0.90;;;17.10;67.90;;;;;;4185174;28;20257;-74
2022/10/06 11:04:03;;;;;;;4.83;1.10;;;17.20;65.40;;;;;;4187152;28;20215;-74
2022/10/06 11:06:23;;;;;;;6.53;1.07;;;17.10;64.40;;;;;;4181868;28;20291;-74